Bennington, Kansas
Current Conditions -  °F | °C
As of 2:53 PM on Thursday 20 Nov 2014 (Local Time) from KSLN Reporting Station
Clear Clear  
Wind Chill: 43°   Ceiling: Unl
Heat Index: 47°   Visibility: 10mi
Dew Point: 20°   Wind: 8mph
Humidity: 34%   Direction: 130°SE
Pressure: 30.11"   Gusts: NA
Location:  39.03°N, 97.59°W
Report Text: KSLN 202053Z 13007KT 10SM CLR 08/M07 A3011 RMK AO2 SLP205 T00831067 56022
Loading
Personal Weather Stations






























Interactive Weather Map New forecast layout! Learn more

10-Day Weather Forecast

Advertisements
Track Severe Weather on mobile